Time;durP1;ratioP1;P1;durP2;ratioP2;P2;SDS_P1;SDS_P2;PMS_P1;PMS_P2;Temp;Humidity;BMP_temperature;BMP_pressure;BME280_temperature;BME280_humidity;BME280_pressure;Samples;Min_cycle;Max_cycle;Signal;HPM_P1;HPM_P2
2024/03/23 18:26:39;;;;;;;5.63;2.42;;;7.50;80.80;;;;;;10451924;27;20919;-63
2024/03/23 18:31:42;;;;;;;5.27;2.07;;;7.60;82.80;;;;;;10447273;28;20236;-63
2024/03/23 18:36:44;;;;;;;4.50;1.95;;;7.70;82.60;;;;;;10418793;28;20206;-63
2024/03/23 18:41:48;;;;;;;4.40;1.90;;;7.80;83.10;;;;;;10417895;28;21964;-63
2024/03/23 18:46:51;;;;;;;4.53;2.13;;;7.90;84.50;;;;;;10418751;28;20199;-63
2024/03/23 18:51:53;;;;;;;4.13;2.10;;;8.00;84.10;;;;;;10419025;28;20849;-62
2024/03/23 18:56:57;;;;;;;4.97;2.23;;;8.00;84.60;;;;;;10418081;28;20212;-62
2024/03/23 19:02:00;;;;;;;6.30;2.40;;;8.10;84.40;;;;;;10420078;28;20309;-62
2024/03/23 19:07:03;;;;;;;4.93;2.20;;;8.10;83.80;;;;;;10418532;28;20296;-62
2024/03/23 19:12:08;;;;;;;2.63;1.60;;;8.10;83.90;;;;;;10413466;28;20234;-62
2024/03/23 19:17:11;;;;;;;3.53;2.20;;;8.00;84.10;;;;;;10417434;28;20218;-62
2024/03/23 19:22:13;;;;;;;3.70;2.23;;;8.00;85.00;;;;;;10414143;28;20230;-62
2024/03/23 19:27:17;;;;;;;3.73;2.20;;;8.00;85.00;;;;;;10416694;28;22189;-62
2024/03/23 19:32:20;;;;;;;6.53;2.33;;;8.00;84.90;;;;;;10417844;28;21716;-62
2024/03/23 19:37:22;;;;;;;3.77;2.17;;;8.00;85.00;;;;;;10392860;28;20303;-62
2024/03/23 19:42:26;;;;;;;2.67;1.73;;;8.10;85.20;;;;;;10386817;28;22051;-63
2024/03/23 19:47:29;;;;;;;3.43;1.90;;;8.10;84.90;;;;;;10385222;28;21703;-63
2024/03/23 19:52:31;;;;;;;5.22;1.73;;;8.10;85.50;;;;;;10387164;28;20296;-62
2024/03/23 19:57:35;;;;;;;2.35;1.42;;;8.10;85.20;;;;;;10388330;28;21752;-63
2024/03/23 20:02:38;;;;;;;2.33;1.17;;;8.10;85.30;;;;;;10386480;28;20253;-63
2024/03/23 20:07:40;;;;;;;3.03;1.47;;;8.00;85.00;;;;;;10387406;28;20558;-60
2024/03/23 20:12:44;;;;;;;4.90;1.60;;;7.90;85.50;;;;;;10386312;28;20222;-61
2024/03/23 20:17:47;;;;;;;2.80;1.55;;;7.90;85.10;;;;;;10388179;28;20211;-61
2024/03/23 20:22:50;;;;;;;4.70;2.05;;;7.80;85.80;;;;;;10387175;28;21590;-60
2024/03/23 20:27:54;;;;;;;5.93;2.23;;;7.80;85.90;;;;;;10385789;28;20232;-59
2024/03/23 20:32:56;;;;;;;4.43;2.43;;;7.90;86.20;;;;;;10390975;28;20309;-59
2024/03/23 20:37:59;;;;;;;3.38;1.95;;;8.00;86.10;;;;;;10389346;28;20233;-59
2024/03/23 20:43:09;;;;;;;5.47;2.83;;;8.00;86.50;;;;;;10387184;28;20303;-59
2024/03/23 20:48:12;;;;;;;4.97;2.33;;;7.90;85.60;;;;;;10386865;28;20212;-59
2024/03/23 20:53:15;;;;;;;3.80;2.90;;;7.70;87.00;;;;;;10383307;28;20439;-61
2024/03/23 20:58:19;;;;;;;3.90;2.77;;;7.70;87.80;;;;;;10392770;28;20203;-60
2024/03/23 21:03:21;;;;;;;4.43;3.37;;;7.60;88.50;;;;;;10389480;28;20749;-60
2024/03/23 21:08:24;;;;;;;6.43;4.10;;;7.60;88.60;;;;;;10388008;28;20308;-61
2024/03/23 21:13:28;;;;;;;5.40;4.70;;;7.50;88.90;;;;;;10385164;28;20312;-64
2024/03/23 21:18:32;;;;;;;4.77;4.37;;;7.50;89.70;;;;;;10385487;28;20208;-64
2024/03/23 21:23:35;;;;;;;5.27;4.40;;;7.50;89.60;;;;;;10385867;28;20317;-65
2024/03/23 21:28:39;;;;;;;5.50;4.85;;;7.50;89.10;;;;;;10386277;28;20294;-65
2024/03/23 21:33:42;;;;;;;5.43;5.00;;;7.50;89.30;;;;;;10387866;28;20230;-65
2024/03/23 21:38:45;;;;;;;7.43;5.97;;;7.50;89.70;;;;;;10385344;28;20210;-65
2024/03/23 21:43:49;;;;;;;13.70;7.20;;;7.50;90.20;;;;;;10385614;28;20231;-64
2024/03/23 21:48:51;;;;;;;6.63;5.67;;;7.40;90.00;;;;;;10384944;28;20199;-65
2024/03/23 21:53:55;;;;;;;9.17;6.30;;;7.50;90.00;;;;;;10383471;28;20313;-65
2024/03/23 21:59:00;;;;;;;6.50;5.90;;;7.50;90.10;;;;;;10384467;28;20212;-66
2024/03/23 22:04:03;;;;;;;6.47;5.30;;;7.40;90.00;;;;;;10383547;28;20322;-66
2024/03/23 22:09:05;;;;;;;12.90;7.77;;;7.40;90.00;;;;;;10381807;28;20625;-66
2024/03/23 22:14:09;;;;;;;13.23;9.47;;;7.40;90.30;;;;;;10383251;28;20223;-66
2024/03/23 22:19:12;;;;;;;8.00;5.20;;;7.40;90.50;;;;;;10382679;28;21234;-66
2024/03/23 22:24:15;;;;;;;7.87;5.13;;;7.40;90.20;;;;;;10381844;28;21870;-65
2024/03/23 22:29:19;;;;;;;7.20;4.80;;;7.30;90.30;;;;;;10380778;28;20207;-66
2024/03/23 22:34:22;;;;;;;6.57;4.20;;;7.30;90.40;;;;;;10380541;28;20992;-65
2024/03/23 22:39:24;;;;;;;7.73;4.03;;;7.30;90.80;;;;;;10381217;28;20207;-65
2024/03/23 22:44:29;;;;;;;5.40;3.87;;;7.30;90.70;;;;;;10380898;28;20296;-65
2024/03/23 22:49:31;;;;;;;7.37;3.40;;;7.40;90.70;;;;;;10382518;28;20208;-66
2024/03/23 22:54:34;;;;;;;9.97;4.30;;;7.30;90.60;;;;;;10380887;28;22025;-66
2024/03/23 22:59:38;;;;;;;6.97;3.67;;;7.30;90.60;;;;;;10380717;28;20257;-66
2024/03/23 23:04:40;;;;;;;5.47;3.17;;;7.30;90.70;;;;;;10380460;28;20236;-66
2024/03/23 23:09:43;;;;;;;6.93;3.40;;;7.30;91.00;;;;;;10381839;28;20268;-66
2024/03/23 23:14:47;;;;;;;5.23;3.30;;;7.30;91.20;;;;;;10387933;28;20226;-66
2024/03/23 23:19:49;;;;;;;6.93;3.47;;;7.30;91.10;;;;;;10388358;28;20284;-67
2024/03/23 23:24:52;;;;;;;6.87;3.13;;;7.30;91.40;;;;;;10388059;28;20230;-66
2024/03/23 23:29:56;;;;;;;6.80;3.53;;;7.30;91.20;;;;;;10387779;28;20239;-67
2024/03/23 23:34:59;;;;;;;5.40;2.87;;;7.30;91.20;;;;;;10387206;28;20273;-66
2024/03/23 23:40:02;;;;;;;5.80;2.67;;;7.30;91.20;;;;;;10386843;28;20218;-67
2024/03/23 23:45:09;;;;;;;6.07;2.73;;;7.20;91.20;;;;;;10386749;28;20451;-67
2024/03/23 23:50:12;;;;;;;5.40;2.40;;;7.20;91.20;;;;;;10386782;28;21446;-67
2024/03/23 23:55:14;;;;;;;5.47;2.30;;;7.20;91.40;;;;;;10385669;28;20219;-67
